sensor_id;sensor_type;location;lat;lon;timestamp;P1;durP1;ratioP1;P2;durP2;ratioP2
13185;SDS011;6658;53.080;7.428;2023-07-30T00:00:37;4.20;;;3.50;;
13185;SDS011;6658;53.080;7.428;2023-07-30T00:03:03;4.93;;;3.33;;
13185;SDS011;6658;53.080;7.428;2023-07-30T00:05:28;3.63;;;3.33;;
13185;SDS011;6658;53.080;7.428;2023-07-30T00:07:54;4.00;;;3.60;;
13185;SDS011;6658;53.080;7.428;2023-07-30T00:10:20;4.63;;;3.27;;
13185;SDS011;6658;53.080;7.428;2023-07-30T00:12:46;5.50;;;3.90;;
13185;SDS011;6658;53.080;7.428;2023-07-30T00:15:11;4.83;;;3.70;;
13185;SDS011;6658;53.080;7.428;2023-07-30T00:17:38;4.03;;;3.60;;
13185;SDS011;6658;53.080;7.428;2023-07-30T00:20:04;4.30;;;3.27;;
13185;SDS011;6658;53.080;7.428;2023-07-30T00:22:33;4.13;;;3.60;;
13185;SDS011;6658;53.080;7.428;2023-07-30T00:24:59;4.10;;;3.57;;
13185;SDS011;6658;53.080;7.428;2023-07-30T00:27:25;5.53;;;3.40;;
13185;SDS011;6658;53.080;7.428;2023-07-30T00:29:51;3.63;;;3.37;;
13185;SDS011;6658;53.080;7.428;2023-07-30T00:32:16;5.00;;;3.67;;
13185;SDS011;6658;53.080;7.428;2023-07-30T00:34:42;4.60;;;3.83;;
13185;SDS011;6658;53.080;7.428;2023-07-30T00:37:08;3.80;;;3.53;;
13185;SDS011;6658;53.080;7.428;2023-07-30T00:39:34;4.53;;;4.13;;
13185;SDS011;6658;53.080;7.428;2023-07-30T00:42:00;4.70;;;3.97;;
13185;SDS011;6658;53.080;7.428;2023-07-30T00:44:26;5.00;;;3.90;;
13185;SDS011;6658;53.080;7.428;2023-07-30T00:46:52;4.53;;;4.13;;
13185;SDS011;6658;53.080;7.428;2023-07-30T00:49:18;4.47;;;4.07;;
13185;SDS011;6658;53.080;7.428;2023-07-30T00:51:44;4.53;;;3.97;;
13185;SDS011;6658;53.080;7.428;2023-07-30T00:54:10;7.00;;;4.60;;
13185;SDS011;6658;53.080;7.428;2023-07-30T00:56:36;4.50;;;4.10;;
13185;SDS011;6658;53.080;7.428;2023-07-30T00:59:03;4.60;;;3.90;;
13185;SDS011;6658;53.080;7.428;2023-07-30T01:01:29;4.30;;;3.90;;
13185;SDS011;6658;53.080;7.428;2023-07-30T01:03:59;6.40;;;4.00;;
13185;SDS011;6658;53.080;7.428;2023-07-30T01:06:24;4.80;;;3.70;;
13185;SDS011;6658;53.080;7.428;2023-07-30T01:08:50;6.63;;;3.83;;
13185;SDS011;6658;53.080;7.428;2023-07-30T01:11:16;6.33;;;4.37;;
13185;SDS011;6658;53.080;7.428;2023-07-30T01:13:43;5.40;;;3.70;;
13185;SDS011;6658;53.080;7.428;2023-07-30T01:16:09;5.53;;;3.73;;
13185;SDS011;6658;53.080;7.428;2023-07-30T01:18:35;5.03;;;3.70;;
13185;SDS011;6658;53.080;7.428;2023-07-30T01:21:01;6.40;;;4.40;;
13185;SDS011;6658;53.080;7.428;2023-07-30T01:23:27;6.80;;;4.20;;
13185;SDS011;6658;53.080;7.428;2023-07-30T01:25:59;3.73;;;3.30;;
13185;SDS011;6658;53.080;7.428;2023-07-30T01:28:29;8.50;;;4.10;;
13185;SDS011;6658;53.080;7.428;2023-07-30T01:31:02;6.07;;;3.40;;
13185;SDS011;6658;53.080;7.428;2023-07-30T01:33:29;5.00;;;3.73;;
13185;SDS011;6658;53.080;7.428;2023-07-30T01:35:55;5.00;;;3.77;;
13185;SDS011;6658;53.080;7.428;2023-07-30T01:38:22;5.53;;;3.67;;
13185;SDS011;6658;53.080;7.428;2023-07-30T01:40:48;5.93;;;4.00;;
13185;SDS011;6658;53.080;7.428;2023-07-30T01:43:14;5.37;;;3.77;;
13185;SDS011;6658;53.080;7.428;2023-07-30T01:45:40;5.03;;;3.33;;
13185;SDS011;6658;53.080;7.428;2023-07-30T01:48:06;7.00;;;3.47;;
13185;SDS011;6658;53.080;7.428;2023-07-30T01:50:32;5.63;;;3.73;;
13185;SDS011;6658;53.080;7.428;2023-07-30T01:52:57;5.63;;;3.63;;
13185;SDS011;6658;53.080;7.428;2023-07-30T01:55:23;6.67;;;3.50;;
13185;SDS011;6658;53.080;7.428;2023-07-30T01:57:49;4.27;;;3.23;;
13185;SDS011;6658;53.080;7.428;2023-07-30T02:00:14;7.17;;;3.83;;
13185;SDS011;6658;53.080;7.428;2023-07-30T02:02:40;5.03;;;3.10;;
13185;SDS011;6658;53.080;7.428;2023-07-30T02:05:06;4.30;;;3.20;;
13185;SDS011;6658;53.080;7.428;2023-07-30T02:07:31;6.07;;;3.80;;
13185;SDS011;6658;53.080;7.428;2023-07-30T02:09:57;5.47;;;3.93;;
13185;SDS011;6658;53.080;7.428;2023-07-30T02:12:23;5.00;;;3.63;;
13185;SDS011;6658;53.080;7.428;2023-07-30T02:14:48;6.87;;;3.77;;
13185;SDS011;6658;53.080;7.428;2023-07-30T02:17:14;6.03;;;3.63;;
13185;SDS011;6658;53.080;7.428;2023-07-30T02:19:40;5.53;;;3.67;;
13185;SDS011;6658;53.080;7.428;2023-07-30T02:22:06;6.53;;;4.17;;
13185;SDS011;6658;53.080;7.428;2023-07-30T02:24:32;6.37;;;3.70;;
13185;SDS011;6658;53.080;7.428;2023-07-30T02:26:58;6.63;;;3.47;;
13185;SDS011;6658;53.080;7.428;2023-07-30T02:29:24;5.40;;;3.40;;
13185;SDS011;6658;53.080;7.428;2023-07-30T02:31:53;6.53;;;3.60;;
13185;SDS011;6658;53.080;7.428;2023-07-30T02:34:19;8.03;;;3.57;;
13185;SDS011;6658;53.080;7.428;2023-07-30T02:36:45;6.87;;;3.90;;
13185;SDS011;6658;53.080;7.428;2023-07-30T02:39:10;8.47;;;4.20;;
13185;SDS011;6658;53.080;7.428;2023-07-30T02:41:36;5.63;;;3.20;;
13185;SDS011;6658;53.080;7.428;2023-07-30T02:44:02;5.93;;;3.80;;
13185;SDS011;6658;53.080;7.428;2023-07-30T02:46:27;8.63;;;3.43;;
13185;SDS011;6658;53.080;7.428;2023-07-30T02:48:53;6.53;;;3.63;;
13185;SDS011;6658;53.080;7.428;2023-07-30T02:51:25;8.13;;;3.97;;
13185;SDS011;6658;53.080;7.428;2023-07-30T02:53:57;6.77;;;3.70;;
13185;SDS011;6658;53.080;7.428;2023-07-30T02:56:26;8.13;;;3.97;;
13185;SDS011;6658;53.080;7.428;2023-07-30T02:58:52;5.70;;;3.80;;
13185;SDS011;6658;53.080;7.428;2023-07-30T03:01:17;4.50;;;3.10;;
13185;SDS011;6658;53.080;7.428;2023-07-30T03:03:43;5.70;;;3.30;;
13185;SDS011;6658;53.080;7.428;2023-07-30T03:06:10;6.67;;;3.57;;
13185;SDS011;6658;53.080;7.428;2023-07-30T03:08:35;6.80;;;3.17;;
13185;SDS011;6658;53.080;7.428;2023-07-30T03:11:02;5.63;;;2.80;;
13185;SDS011;6658;53.080;7.428;2023-07-30T03:13:28;7.43;;;3.40;;
13185;SDS011;6658;53.080;7.428;2023-07-30T03:15:53;4.17;;;2.73;;
13185;SDS011;6658;53.080;7.428;2023-07-30T03:18:23;5.87;;;2.80;;
13185;SDS011;6658;53.080;7.428;2023-07-30T03:20:49;4.93;;;2.77;;
13185;SDS011;6658;53.080;7.428;2023-07-30T03:23:14;6.43;;;3.10;;
13185;SDS011;6658;53.080;7.428;2023-07-30T03:25:40;5.07;;;2.80;;
13185;SDS011;6658;53.080;7.428;2023-07-30T03:28:06;5.87;;;2.70;;
13185;SDS011;6658;53.080;7.428;2023-07-30T03:30:31;6.73;;;2.67;;
13185;SDS011;6658;53.080;7.428;2023-07-30T03:32:57;7.97;;;3.10;;
13185;SDS011;6658;53.080;7.428;2023-07-30T03:35:23;6.33;;;2.40;;
13185;SDS011;6658;53.080;7.428;2023-07-30T03:37:48;5.30;;;2.80;;
13185;SDS011;6658;53.080;7.428;2023-07-30T03:40:14;5.30;;;2.70;;
13185;SDS011;6658;53.080;7.428;2023-07-30T03:42:40;6.17;;;2.57;;
13185;SDS011;6658;53.080;7.428;2023-07-30T03:45:05;5.27;;;2.90;;
13185;SDS011;6658;53.080;7.428;2023-07-30T03:47:31;5.67;;;2.50;;
13185;SDS011;6658;53.080;7.428;2023-07-30T03:49:57;6.37;;;2.90;;
13185;SDS011;6658;53.080;7.428;2023-07-30T03:52:23;5.50;;;2.93;;
13185;SDS011;6658;53.080;7.428;2023-07-30T03:54:48;5.57;;;2.80;;
13185;SDS011;6658;53.080;7.428;2023-07-30T03:57:14;6.63;;;2.70;;
13185;SDS011;6658;53.080;7.428;2023-07-30T03:59:40;6.33;;;2.50;;
13185;SDS011;6658;53.080;7.428;2023-07-30T04:02:05;4.30;;;2.13;;
13185;SDS011;6658;53.080;7.428;2023-07-30T04:04:31;7.30;;;2.50;;
13185;SDS011;6658;53.080;7.428;2023-07-30T04:06:56;3.47;;;2.03;;
13185;SDS011;6658;53.080;7.428;2023-07-30T04:09:22;4.53;;;2.20;;
13185;SDS011;6658;53.080;7.428;2023-07-30T04:11:48;7.30;;;2.70;;
13185;SDS011;6658;53.080;7.428;2023-07-30T04:14:13;4.30;;;2.17;;
13185;SDS011;6658;53.080;7.428;2023-07-30T04:16:39;5.77;;;2.40;;
13185;SDS011;6658;53.080;7.428;2023-07-30T04:19:05;5.00;;;2.00;;
13185;SDS011;6658;53.080;7.428;2023-07-30T04:21:30;4.53;;;2.37;;
13185;SDS011;6658;53.080;7.428;2023-07-30T04:23:56;4.80;;;2.00;;
13185;SDS011;6658;53.080;7.428;2023-07-30T04:26:22;3.83;;;1.80;;
13185;SDS011;6658;53.080;7.428;2023-07-30T04:28:47;6.73;;;2.33;;
13185;SDS011;6658;53.080;7.428;2023-07-30T04:31:13;6.27;;;2.40;;
13185;SDS011;6658;53.080;7.428;2023-07-30T04:33:39;4.30;;;1.83;;
13185;SDS011;6658;53.080;7.428;2023-07-30T04:36:04;2.80;;;1.70;;
13185;SDS011;6658;53.080;7.428;2023-07-30T04:38:32;8.57;;;2.20;;
13185;SDS011;6658;53.080;7.428;2023-07-30T04:40:58;5.80;;;2.83;;
13185;SDS011;6658;53.080;7.428;2023-07-30T04:43:24;3.93;;;2.00;;
13185;SDS011;6658;53.080;7.428;2023-07-30T04:45:49;6.57;;;2.40;;
13185;SDS011;6658;53.080;7.428;2023-07-30T04:48:15;4.97;;;2.40;;
13185;SDS011;6658;53.080;7.428;2023-07-30T04:50:41;7.03;;;2.17;;
13185;SDS011;6658;53.080;7.428;2023-07-30T04:53:07;5.07;;;2.17;;
13185;SDS011;6658;53.080;7.428;2023-07-30T04:55:33;5.00;;;2.40;;
13185;SDS011;6658;53.080;7.428;2023-07-30T04:57:59;4.27;;;2.33;;
13185;SDS011;6658;53.080;7.428;2023-07-30T05:00:25;6.47;;;2.53;;
13185;SDS011;6658;53.080;7.428;2023-07-30T05:02:50;5.47;;;2.50;;
13185;SDS011;6658;53.080;7.428;2023-07-30T05:05:16;6.53;;;2.43;;
13185;SDS011;6658;53.080;7.428;2023-07-30T05:07:42;4.50;;;3.13;;
13185;SDS011;6658;53.080;7.428;2023-07-30T05:10:07;4.57;;;2.40;;
13185;SDS011;6658;53.080;7.428;2023-07-30T05:12:35;4.00;;;2.50;;
13185;SDS011;6658;53.080;7.428;2023-07-30T05:15:02;4.93;;;1.97;;
13185;SDS011;6658;53.080;7.428;2023-07-30T05:17:28;4.07;;;2.40;;
13185;SDS011;6658;53.080;7.428;2023-07-30T05:19:55;7.70;;;2.77;;
13185;SDS011;6658;53.080;7.428;2023-07-30T05:22:20;5.90;;;2.47;;
13185;SDS011;6658;53.080;7.428;2023-07-30T05:24:46;6.30;;;2.60;;
13185;SDS011;6658;53.080;7.428;2023-07-30T05:27:12;7.03;;;2.80;;
13185;SDS011;6658;53.080;7.428;2023-07-30T05:29:38;4.77;;;2.60;;
13185;SDS011;6658;53.080;7.428;2023-07-30T05:32:04;5.83;;;2.90;;
13185;SDS011;6658;53.080;7.428;2023-07-30T05:34:30;4.67;;;2.30;;
13185;SDS011;6658;53.080;7.428;2023-07-30T05:36:55;3.33;;;2.30;;
13185;SDS011;6658;53.080;7.428;2023-07-30T05:39:21;5.13;;;2.30;;
13185;SDS011;6658;53.080;7.428;2023-07-30T05:41:47;6.70;;;2.77;;
13185;SDS011;6658;53.080;7.428;2023-07-30T05:44:12;4.30;;;2.43;;
13185;SDS011;6658;53.080;7.428;2023-07-30T05:46:38;5.83;;;2.33;;
13185;SDS011;6658;53.080;7.428;2023-07-30T05:49:04;4.37;;;2.40;;
13185;SDS011;6658;53.080;7.428;2023-07-30T05:51:29;3.67;;;2.50;;
13185;SDS011;6658;53.080;7.428;2023-07-30T05:53:55;6.50;;;2.30;;
13185;SDS011;6658;53.080;7.428;2023-07-30T05:56:21;4.60;;;2.13;;
13185;SDS011;6658;53.080;7.428;2023-07-30T05:58:46;5.70;;;2.80;;
13185;SDS011;6658;53.080;7.428;2023-07-30T06:01:12;4.83;;;2.13;;
13185;SDS011;6658;53.080;7.428;2023-07-30T06:03:38;3.13;;;2.17;;
13185;SDS011;6658;53.080;7.428;2023-07-30T06:06:03;5.47;;;2.67;;
13185;SDS011;6658;53.080;7.428;2023-07-30T06:08:29;5.57;;;2.57;;
13185;SDS011;6658;53.080;7.428;2023-07-30T06:10:55;4.97;;;2.47;;
13185;SDS011;6658;53.080;7.428;2023-07-30T06:13:25;5.47;;;2.80;;
13185;SDS011;6658;53.080;7.428;2023-07-30T06:15:50;5.83;;;3.00;;
13185;SDS011;6658;53.080;7.428;2023-07-30T06:18:16;6.77;;;2.67;;
13185;SDS011;6658;53.080;7.428;2023-07-30T06:20:42;5.90;;;2.83;;
13185;SDS011;6658;53.080;7.428;2023-07-30T06:23:07;6.00;;;3.00;;
13185;SDS011;6658;53.080;7.428;2023-07-30T06:25:33;8.40;;;2.77;;
13185;SDS011;6658;53.080;7.428;2023-07-30T06:27:58;7.10;;;3.13;;
13185;SDS011;6658;53.080;7.428;2023-07-30T06:30:24;7.00;;;3.07;;
13185;SDS011;6658;53.080;7.428;2023-07-30T06:32:50;5.17;;;3.00;;
13185;SDS011;6658;53.080;7.428;2023-07-30T06:35:16;5.40;;;2.07;;
13185;SDS011;6658;53.080;7.428;2023-07-30T06:37:41;6.10;;;2.80;;
13185;SDS011;6658;53.080;7.428;2023-07-30T06:40:07;7.60;;;3.40;;
13185;SDS011;6658;53.080;7.428;2023-07-30T06:42:33;6.13;;;2.60;;
13185;SDS011;6658;53.080;7.428;2023-07-30T06:44:59;4.43;;;2.33;;
13185;SDS011;6658;53.080;7.428;2023-07-30T06:47:24;6.53;;;3.20;;
13185;SDS011;6658;53.080;7.428;2023-07-30T06:49:50;6.00;;;2.63;;
13185;SDS011;6658;53.080;7.428;2023-07-30T06:52:16;4.70;;;2.47;;
13185;SDS011;6658;53.080;7.428;2023-07-30T06:54:41;6.47;;;2.80;;
13185;SDS011;6658;53.080;7.428;2023-07-30T06:57:07;6.47;;;2.27;;
13185;SDS011;6658;53.080;7.428;2023-07-30T06:59:33;4.47;;;2.53;;
13185;SDS011;6658;53.080;7.428;2023-07-30T07:01:59;7.77;;;3.13;;
13185;SDS011;6658;53.080;7.428;2023-07-30T07:04:25;4.93;;;2.47;;
13185;SDS011;6658;53.080;7.428;2023-07-30T07:06:51;4.80;;;2.47;;
13185;SDS011;6658;53.080;7.428;2023-07-30T07:09:16;4.20;;;2.80;;
13185;SDS011;6658;53.080;7.428;2023-07-30T07:11:43;6.63;;;2.93;;
13185;SDS011;6658;53.080;7.428;2023-07-30T07:14:08;8.20;;;2.70;;
13185;SDS011;6658;53.080;7.428;2023-07-30T07:16:34;7.43;;;2.50;;
13185;SDS011;6658;53.080;7.428;2023-07-30T07:19:00;8.00;;;2.83;;
13185;SDS011;6658;53.080;7.428;2023-07-30T07:21:26;6.87;;;2.70;;
13185;SDS011;6658;53.080;7.428;2023-07-30T07:23:51;7.60;;;3.07;;
13185;SDS011;6658;53.080;7.428;2023-07-30T07:26:17;5.07;;;2.20;;
13185;SDS011;6658;53.080;7.428;2023-07-30T07:28:43;5.50;;;2.60;;
13185;SDS011;6658;53.080;7.428;2023-07-30T07:31:08;6.70;;;2.80;;
13185;SDS011;6658;53.080;7.428;2023-07-30T07:33:34;6.63;;;2.97;;
13185;SDS011;6658;53.080;7.428;2023-07-30T07:36:04;9.33;;;2.90;;
13185;SDS011;6658;53.080;7.428;2023-07-30T07:38:30;6.67;;;2.63;;
13185;SDS011;6658;53.080;7.428;2023-07-30T07:40:57;7.33;;;3.00;;
13185;SDS011;6658;53.080;7.428;2023-07-30T07:43:23;8.00;;;2.53;;
13185;SDS011;6658;53.080;7.428;2023-07-30T07:45:49;5.13;;;2.40;;
13185;SDS011;6658;53.080;7.428;2023-07-30T07:48:14;8.47;;;3.00;;
13185;SDS011;6658;53.080;7.428;2023-07-30T07:50:40;6.17;;;2.57;;
13185;SDS011;6658;53.080;7.428;2023-07-30T07:53:06;6.50;;;2.63;;
13185;SDS011;6658;53.080;7.428;2023-07-30T07:55:31;5.50;;;2.50;;
13185;SDS011;6658;53.080;7.428;2023-07-30T07:57:58;4.27;;;2.13;;
13185;SDS011;6658;53.080;7.428;2023-07-30T08:00:23;9.87;;;3.27;;
13185;SDS011;6658;53.080;7.428;2023-07-30T08:02:49;6.70;;;2.77;;
13185;SDS011;6658;53.080;7.428;2023-07-30T08:05:15;4.30;;;2.40;;
13185;SDS011;6658;53.080;7.428;2023-07-30T08:07:41;6.43;;;2.60;;
13185;SDS011;6658;53.080;7.428;2023-07-30T08:10:06;7.47;;;2.43;;
13185;SDS011;6658;53.080;7.428;2023-07-30T08:12:32;5.70;;;2.57;;
13185;SDS011;6658;53.080;7.428;2023-07-30T08:14:58;8.67;;;2.90;;
13185;SDS011;6658;53.080;7.428;2023-07-30T08:17:24;7.67;;;2.70;;
13185;SDS011;6658;53.080;7.428;2023-07-30T08:19:50;7.93;;;2.53;;
13185;SDS011;6658;53.080;7.428;2023-07-30T08:22:16;7.87;;;3.00;;
13185;SDS011;6658;53.080;7.428;2023-07-30T08:24:41;5.00;;;2.27;;
13185;SDS011;6658;53.080;7.428;2023-07-30T08:27:07;5.40;;;1.93;;
13185;SDS011;6658;53.080;7.428;2023-07-30T08:29:33;4.07;;;2.03;;
13185;SDS011;6658;53.080;7.428;2023-07-30T08:31:59;5.00;;;2.03;;
13185;SDS011;6658;53.080;7.428;2023-07-30T08:34:25;6.33;;;2.27;;
13185;SDS011;6658;53.080;7.428;2023-07-30T08:36:50;5.13;;;2.23;;
13185;SDS011;6658;53.080;7.428;2023-07-30T08:39:16;5.97;;;2.23;;
13185;SDS011;6658;53.080;7.428;2023-07-30T08:41:43;4.67;;;2.17;;
13185;SDS011;6658;53.080;7.428;2023-07-30T08:44:09;6.93;;;1.97;;
13185;SDS011;6658;53.080;7.428;2023-07-30T08:46:35;4.27;;;1.93;;
13185;SDS011;6658;53.080;7.428;2023-07-30T08:49:00;3.53;;;2.00;;
13185;SDS011;6658;53.080;7.428;2023-07-30T08:51:26;4.70;;;2.03;;
13185;SDS011;6658;53.080;7.428;2023-07-30T08:53:52;3.87;;;1.60;;
13185;SDS011;6658;53.080;7.428;2023-07-30T08:56:19;5.10;;;1.90;;
13185;SDS011;6658;53.080;7.428;2023-07-30T08:58:46;4.90;;;1.90;;
13185;SDS011;6658;53.080;7.428;2023-07-30T09:01:14;4.43;;;1.90;;
13185;SDS011;6658;53.080;7.428;2023-07-30T09:03:42;3.83;;;1.80;;
13185;SDS011;6658;53.080;7.428;2023-07-30T09:06:08;4.73;;;1.50;;
13185;SDS011;6658;53.080;7.428;2023-07-30T09:08:34;3.83;;;1.73;;
13185;SDS011;6658;53.080;7.428;2023-07-30T09:11:07;4.63;;;2.40;;
13185;SDS011;6658;53.080;7.428;2023-07-30T09:13:39;3.50;;;1.63;;
13185;SDS011;6658;53.080;7.428;2023-07-30T09:16:09;5.90;;;1.60;;
13185;SDS011;6658;53.080;7.428;2023-07-30T09:18:40;3.63;;;1.43;;
13185;SDS011;6658;53.080;7.428;2023-07-30T09:21:14;4.30;;;1.80;;
13185;SDS011;6658;53.080;7.428;2023-07-30T09:23:44;3.97;;;1.70;;
13185;SDS011;6658;53.080;7.428;2023-07-30T09:26:11;4.83;;;1.90;;
13185;SDS011;6658;53.080;7.428;2023-07-30T09:28:38;3.30;;;1.67;;
13185;SDS011;6658;53.080;7.428;2023-07-30T09:31:05;5.33;;;1.80;;
13185;SDS011;6658;53.080;7.428;2023-07-30T09:33:32;3.90;;;1.60;;
13185;SDS011;6658;53.080;7.428;2023-07-30T09:36:05;4.43;;;1.50;;
13185;SDS011;6658;53.080;7.428;2023-07-30T09:38:32;2.50;;;1.57;;
13185;SDS011;6658;53.080;7.428;2023-07-30T09:41:07;4.83;;;1.80;;
13185;SDS011;6658;53.080;7.428;2023-07-30T09:43:34;2.60;;;1.33;;
13185;SDS011;6658;53.080;7.428;2023-07-30T09:46:01;2.50;;;1.30;;
13185;SDS011;6658;53.080;7.428;2023-07-30T09:48:29;2.67;;;1.20;;
13185;SDS011;6658;53.080;7.428;2023-07-30T09:50:59;2.57;;;1.30;;
13185;SDS011;6658;53.080;7.428;2023-07-30T09:53:28;3.37;;;1.40;;
13185;SDS011;6658;53.080;7.428;2023-07-30T09:55:59;2.60;;;1.30;;
13185;SDS011;6658;53.080;7.428;2023-07-30T09:58:25;2.50;;;1.17;;
13185;SDS011;6658;53.080;7.428;2023-07-30T10:00:51;3.53;;;1.40;;
13185;SDS011;6658;53.080;7.428;2023-07-30T10:03:18;2.93;;;1.73;;
13185;SDS011;6658;53.080;7.428;2023-07-30T10:05:44;2.37;;;1.43;;
13185;SDS011;6658;53.080;7.428;2023-07-30T10:08:12;3.80;;;1.60;;
13185;SDS011;6658;53.080;7.428;2023-07-30T10:10:46;2.80;;;1.27;;
13185;SDS011;6658;53.080;7.428;2023-07-30T10:13:13;4.90;;;1.40;;
13185;SDS011;6658;53.080;7.428;2023-07-30T10:15:41;5.10;;;1.83;;
13185;SDS011;6658;53.080;7.428;2023-07-30T10:18:08;4.87;;;1.57;;
13185;SDS011;6658;53.080;7.428;2023-07-30T10:20:34;3.23;;;1.53;;
13185;SDS011;6658;53.080;7.428;2023-07-30T10:23:00;2.17;;;1.33;;
13185;SDS011;6658;53.080;7.428;2023-07-30T10:25:30;4.07;;;1.20;;
13185;SDS011;6658;53.080;7.428;2023-07-30T10:28:07;5.23;;;1.50;;
13185;SDS011;6658;53.080;7.428;2023-07-30T10:30:33;3.23;;;1.50;;
13185;SDS011;6658;53.080;7.428;2023-07-30T10:33:02;3.67;;;1.70;;
13185;SDS011;6658;53.080;7.428;2023-07-30T10:38:18;3.47;;;1.17;;
13185;SDS011;6658;53.080;7.428;2023-07-30T10:43:41;2.50;;;1.27;;
13185;SDS011;6658;53.080;7.428;2023-07-30T10:46:09;3.43;;;1.47;;
13185;SDS011;6658;53.080;7.428;2023-07-30T10:48:37;3.17;;;1.00;;
13185;SDS011;6658;53.080;7.428;2023-07-30T10:51:05;3.80;;;1.23;;
13185;SDS011;6658;53.080;7.428;2023-07-30T10:53:32;1.77;;;1.10;;
13185;SDS011;6658;53.080;7.428;2023-07-30T10:55:58;3.50;;;1.23;;
13185;SDS011;6658;53.080;7.428;2023-07-30T10:58:26;2.60;;;1.30;;
13185;SDS011;6658;53.080;7.428;2023-07-30T11:00:53;2.77;;;1.50;;
13185;SDS011;6658;53.080;7.428;2023-07-30T11:03:19;2.17;;;1.40;;
13185;SDS011;6658;53.080;7.428;2023-07-30T11:05:46;2.80;;;1.30;;
13185;SDS011;6658;53.080;7.428;2023-07-30T11:08:12;1.63;;;1.03;;
13185;SDS011;6658;53.080;7.428;2023-07-30T11:10:42;2.53;;;1.10;;
13185;SDS011;6658;53.080;7.428;2023-07-30T11:13:12;2.57;;;1.20;;
13185;SDS011;6658;53.080;7.428;2023-07-30T11:15:42;3.10;;;1.13;;
13185;SDS011;6658;53.080;7.428;2023-07-30T11:18:09;2.63;;;1.27;;
13185;SDS011;6658;53.080;7.428;2023-07-30T11:20:36;2.47;;;1.10;;
13185;SDS011;6658;53.080;7.428;2023-07-30T11:23:03;2.83;;;1.30;;
13185;SDS011;6658;53.080;7.428;2023-07-30T11:25:49;2.43;;;1.13;;
13185;SDS011;6658;53.080;7.428;2023-07-30T11:28:26;3.07;;;1.70;;
13185;SDS011;6658;53.080;7.428;2023-07-30T11:30:59;3.43;;;1.10;;
13185;SDS011;6658;53.080;7.428;2023-07-30T11:33:27;2.80;;;1.27;;
13185;SDS011;6658;53.080;7.428;2023-07-30T11:35:56;3.27;;;1.30;;
13185;SDS011;6658;53.080;7.428;2023-07-30T11:38:24;3.23;;;1.10;;
13185;SDS011;6658;53.080;7.428;2023-07-30T11:40:51;2.63;;;1.10;;
13185;SDS011;6658;53.080;7.428;2023-07-30T11:43:18;3.10;;;1.50;;
13185;SDS011;6658;53.080;7.428;2023-07-30T11:45:48;3.60;;;1.20;;
13185;SDS011;6658;53.080;7.428;2023-07-30T11:48:14;4.40;;;1.67;;
13185;SDS011;6658;53.080;7.428;2023-07-30T11:50:58;3.77;;;1.30;;
13185;SDS011;6658;53.080;7.428;2023-07-30T11:53:29;3.10;;;1.30;;
13185;SDS011;6658;53.080;7.428;2023-07-30T11:56:19;2.57;;;1.10;;
13185;SDS011;6658;53.080;7.428;2023-07-30T11:58:47;4.57;;;1.47;;
13185;SDS011;6658;53.080;7.428;2023-07-30T12:01:16;4.80;;;1.63;;
13185;SDS011;6658;53.080;7.428;2023-07-30T12:03:43;3.47;;;1.37;;
13185;SDS011;6658;53.080;7.428;2023-07-30T12:06:09;3.90;;;1.50;;
13185;SDS011;6658;53.080;7.428;2023-07-30T12:08:36;3.60;;;1.63;;
13185;SDS011;6658;53.080;7.428;2023-07-30T12:11:06;2.80;;;1.33;;
13185;SDS011;6658;53.080;7.428;2023-07-30T12:13:33;2.93;;;1.30;;
13185;SDS011;6658;53.080;7.428;2023-07-30T12:15:59;5.27;;;1.73;;
13185;SDS011;6658;53.080;7.428;2023-07-30T12:18:25;4.47;;;1.40;;
13185;SDS011;6658;53.080;7.428;2023-07-30T12:20:53;2.63;;;1.40;;
13185;SDS011;6658;53.080;7.428;2023-07-30T12:23:19;2.57;;;1.30;;
13185;SDS011;6658;53.080;7.428;2023-07-30T12:25:45;3.50;;;1.50;;
13185;SDS011;6658;53.080;7.428;2023-07-30T12:28:12;2.87;;;1.30;;
13185;SDS011;6658;53.080;7.428;2023-07-30T12:30:38;3.40;;;1.43;;
13185;SDS011;6658;53.080;7.428;2023-07-30T12:33:04;2.37;;;1.37;;
13185;SDS011;6658;53.080;7.428;2023-07-30T12:35:31;3.33;;;1.37;;
13185;SDS011;6658;53.080;7.428;2023-07-30T12:37:58;3.17;;;1.30;;
13185;SDS011;6658;53.080;7.428;2023-07-30T12:40:24;2.70;;;1.23;;
13185;SDS011;6658;53.080;7.428;2023-07-30T12:42:50;2.67;;;1.30;;
13185;SDS011;6658;53.080;7.428;2023-07-30T12:45:16;2.20;;;1.20;;
13185;SDS011;6658;53.080;7.428;2023-07-30T12:47:42;4.67;;;1.50;;
13185;SDS011;6658;53.080;7.428;2023-07-30T12:50:07;2.47;;;0.93;;
13185;SDS011;6658;53.080;7.428;2023-07-30T12:52:34;3.47;;;1.47;;
13185;SDS011;6658;53.080;7.428;2023-07-30T12:55:00;2.07;;;0.97;;
13185;SDS011;6658;53.080;7.428;2023-07-30T12:57:26;4.03;;;1.23;;
13185;SDS011;6658;53.080;7.428;2023-07-30T12:59:52;2.80;;;1.07;;
13185;SDS011;6658;53.080;7.428;2023-07-30T13:02:18;2.97;;;1.30;;
13185;SDS011;6658;53.080;7.428;2023-07-30T13:04:43;2.13;;;1.00;;
13185;SDS011;6658;53.080;7.428;2023-07-30T13:07:09;2.07;;;1.00;;
13185;SDS011;6658;53.080;7.428;2023-07-30T13:09:35;2.23;;;0.90;;
13185;SDS011;6658;53.080;7.428;2023-07-30T13:12:00;3.00;;;1.10;;
13185;SDS011;6658;53.080;7.428;2023-07-30T13:14:26;2.63;;;1.00;;
13185;SDS011;6658;53.080;7.428;2023-07-30T13:16:52;1.80;;;0.80;;
13185;SDS011;6658;53.080;7.428;2023-07-30T13:19:17;2.97;;;1.10;;
13185;SDS011;6658;53.080;7.428;2023-07-30T13:21:43;2.30;;;1.03;;
13185;SDS011;6658;53.080;7.428;2023-07-30T13:24:09;1.97;;;0.93;;
13185;SDS011;6658;53.080;7.428;2023-07-30T13:26:35;3.30;;;1.10;;
13185;SDS011;6658;53.080;7.428;2023-07-30T13:29:01;1.67;;;0.90;;
13185;SDS011;6658;53.080;7.428;2023-07-30T13:31:27;2.07;;;0.57;;
13185;SDS011;6658;53.080;7.428;2023-07-30T13:33:53;1.30;;;0.83;;
13185;SDS011;6658;53.080;7.428;2023-07-30T13:36:19;2.70;;;0.93;;
13185;SDS011;6658;53.080;7.428;2023-07-30T13:38:45;2.53;;;0.80;;
13185;SDS011;6658;53.080;7.428;2023-07-30T13:41:11;1.10;;;0.60;;
13185;SDS011;6658;53.080;7.428;2023-07-30T13:43:37;1.07;;;0.60;;
13185;SDS011;6658;53.080;7.428;2023-07-30T13:46:03;1.47;;;0.70;;
13185;SDS011;6658;53.080;7.428;2023-07-30T13:48:29;3.63;;;1.00;;
13185;SDS011;6658;53.080;7.428;2023-07-30T13:50:54;2.47;;;1.10;;
13185;SDS011;6658;53.080;7.428;2023-07-30T13:53:20;1.23;;;0.77;;
13185;SDS011;6658;53.080;7.428;2023-07-30T13:55:46;3.20;;;1.00;;
13185;SDS011;6658;53.080;7.428;2023-07-30T13:58:11;1.80;;;0.90;;
13185;SDS011;6658;53.080;7.428;2023-07-30T14:00:41;1.50;;;0.77;;
13185;SDS011;6658;53.080;7.428;2023-07-30T14:03:08;2.30;;;1.07;;
13185;SDS011;6658;53.080;7.428;2023-07-30T14:05:34;2.17;;;0.90;;
13185;SDS011;6658;53.080;7.428;2023-07-30T14:07:59;1.63;;;1.10;;
13185;SDS011;6658;53.080;7.428;2023-07-30T14:10:25;1.47;;;0.73;;
13185;SDS011;6658;53.080;7.428;2023-07-30T14:12:52;1.40;;;0.87;;
13185;SDS011;6658;53.080;7.428;2023-07-30T14:15:18;2.10;;;0.73;;
13185;SDS011;6658;53.080;7.428;2023-07-30T14:17:44;2.50;;;0.87;;
13185;SDS011;6658;53.080;7.428;2023-07-30T14:20:10;2.67;;;1.00;;
13185;SDS011;6658;53.080;7.428;2023-07-30T14:22:35;3.40;;;1.10;;
13185;SDS011;6658;53.080;7.428;2023-07-30T14:25:04;2.00;;;0.93;;
13185;SDS011;6658;53.080;7.428;2023-07-30T14:27:30;1.57;;;0.93;;
13185;SDS011;6658;53.080;7.428;2023-07-30T14:29:56;3.43;;;1.20;;
13185;SDS011;6658;53.080;7.428;2023-07-30T14:32:22;3.43;;;1.23;;
13185;SDS011;6658;53.080;7.428;2023-07-30T14:34:48;3.27;;;1.07;;
13185;SDS011;6658;53.080;7.428;2023-07-30T14:37:14;4.60;;;1.00;;
13185;SDS011;6658;53.080;7.428;2023-07-30T14:39:43;2.10;;;0.80;;
13185;SDS011;6658;53.080;7.428;2023-07-30T14:42:10;2.70;;;0.90;;
13185;SDS011;6658;53.080;7.428;2023-07-30T14:44:36;1.40;;;0.73;;
13185;SDS011;6658;53.080;7.428;2023-07-30T14:47:01;2.47;;;1.10;;
13185;SDS011;6658;53.080;7.428;2023-07-30T14:49:29;3.00;;;0.90;;
13185;SDS011;6658;53.080;7.428;2023-07-30T14:51:55;3.60;;;0.80;;
13185;SDS011;6658;53.080;7.428;2023-07-30T14:54:21;3.47;;;1.20;;
13185;SDS011;6658;53.080;7.428;2023-07-30T14:56:47;2.40;;;1.00;;
13185;SDS011;6658;53.080;7.428;2023-07-30T14:59:13;1.57;;;0.80;;
13185;SDS011;6658;53.080;7.428;2023-07-30T15:01:38;3.00;;;1.00;;